aviador You're here:

LFOK Decoded Metar

CHALONS in FRANCE
Report Time2018-01-21 22:30:00
UTC Time2018-01-21 22:38:09
Flight Rules lifr LIFR
Wind220° at 13 kt
W.Decomp.*RWY 28: 6.5 kt HW 11.3 kt LCW
W.Rank220° ranks 1
Current wind is above 220° avg. (10.2)
Visibility5000 m
Phenomena:Drizzle
Light Rain
Mist
Fog
Clouds:Overcast 002 Hf
Ceiling200 ft
Temp08°C (ISA -6)
Dew Point08°C (100% RH)
AAT2.9°C
QNH1011 hPa
Density Alt33 ft
Elevation531 ft
Report Wrong Elevation
Raw Report
METAR LFOK 212230Z AUTO 22013KT 5000 -RA BR OVC002 08/08 Q1011
TEMPO 0500 DZ FG VV///=

Extra information for LFOK:More info

Metar Taf Metar & Taf Last 4 Metars F.Rules Stats Wind Profile Meteogram Temp Stats Airport Information Weather charts Add Link Nearby VenuesMetar ALERT Operation Metar Decoded Social comments